WEATHER DATA

YESTERDAY
Time Temp. Dewp. Hum. Wind dir Wind speed Wind gust Bar. 1h Prec. 24h Prec.
00:01 13.2 8.3 72 45 0.8 1.4 1034.7 0.0000 0.0000
00:10 13.1 8.2 72 37 0.3 1.1 1034.8 0.0000 0.0000
00:21 13.1 8.2 72 40 0.3 1.7 1034.8 0.0000 0.0000
00:31 13 8.3 73 45 0.3 1.4 1034.7 0.0000 0.0000
00:41 13 8.3 73 39 0.3 1.4 1034.7 0.0000 0.0000
00:51 12.9 8.2 73 45 0.3 1.7 1034.7 0.0000 0.0000
01:01 12.9 8.2 73 37 0.3 1.4 1034.7 0.0000 0.0000
01:11 12.8 8.1 73 39 0.3 1.7 1034.6 0.0000 0.0000
01:21 12.8 8.3 74 153 0.3 0.8 1034.6 0.0000 0.0000
01:31 12.7 8.2 74 90 0.3 0.8 1034.6 0.0000 0.0000
01:41 12.6 8.1 74 333 0.3 1.1 1034.6 0.0000 0.0000
01:51 12.4 7.9 74 341 0.3 0.8 1034.7 0.0000 0.0000
02:01 12.3 7.8 74 315 0.3 0.8 1034.6 0.0000 0.0000
02:11 12.2 7.7 74 0 0.3 0.8 1034.7 0.0000 0.0000
02:21 12.2 7.7 74 45 0.3 1.4 1034.5 0.0000 0.0000
02:31 12.1 7.6 74 90 0.3 1.1 1034.5 0.0000 0.0000
02:41 12 7.5 74 0 0.8 1034.5 0.0000 0.0000
02:51 11.9 7.4 74 348 0.3 0.8 1034.4 0.0000 0.0000
03:01 11.8 7.3 74 0 0.3 1.1 1034.3 0.0000 0.0000
03:12 11.7 7.4 75 32 0.3 1.1 1034.2 0.0000 0.0000
03:21 11.7 7.4 75 37 0.3 0.8 1034.2 0.0000 0.0000
03:31 11.6 7.3 75 329 0.3 0.8 1034.2 0.0000 0.0000
03:42 11.5 7.2 75 0 0.8 1034.2 0.0000 0.0000
03:51 11.3 7 75 0 0.8 1034.2 0.0000 0.0000
04:00 11.2 6.9 75 0 0.8 1034.1 0.0000 0.0000
04:11 11 6.7 75 0 0.3 1034 0.0000 0.0000
04:22 10.9 6.6 75 0 0.8 1033.9 0.0000 0.0000
04:31 10.9 6.6 75 60 0.3 1.1 1033.9 0.0000 0.0000
04:41 10.8 6.6 75 0 0.8 1033.8 0.0000 0.0000
04:52 10.7 6.5 75 0 0.8 1033.7 0.0000 0.0000
05:02 10.6 6.4 75 45 0.3 0.8 1033.6 0.0000 0.0000
05:11 10.6 6.4 75 0 0.8 1033.6 0.0000 0.0000
05:21 10.6 6.4 75 29 0.3 0.8 1033.5 0.0000 0.0000
05:32 10.5 6.3 75 26 0.3 1.1 1033.4 0.0000 0.0000
05:42 10.5 6.3 75 54 0.3 0.8 1033.4 0.0000 0.0000
05:51 10.4 6.4 76 135 0.3 0.8 1033.4 0.0000 0.0000
06:02 10.4 6.4 76 37 0.3 0.8 1033.3 0.0000 0.0000
06:12 10.3 6.3 76 0 1.1 1033.1 0.0000 0.0000
06:21 10.3 6.3 76 60 0.3 1.1 1033.2 0.0000 0.0000
06:32 10.2 6.2 76 45 0.3 0.8 1033.1 0.0000 0.0000
06:42 10.2 6.2 76 49 0.3 1.1 1033.1 0.0000 0.0000
06:52 10.1 6.1 76 45 0.3 0.8 1033 0.0000 0.0000
07:01 10 6 76 45 0.3 0.8 1033 0.0000 0.0000
07:12 10 6 76 34 0.3 1.4 1033 0.0000 0.0000
07:22 9.9 5.9 76 45 0.3 1.1 1033 0.0000 0.0000
07:32 9.9 5.9 76 37 0.3 0.8 1033 0.0000 0.0000
07:42 9.9 5.9 76 45 0.3 1.1 1033 0.0000 0.0000
07:52 9.8 5.8 76 0 0.8 1033.1 0.0000 0.0000
08:02 9.8 5.8 76 56 0.3 0.8 1033.1 0.0000 0.0000
08:12 9.8 5.8 76 0 0.8 1033.1 0.0000 0.0000
08:22 9.9 5.9 76 45 0.3 1.1 1033.1 0.0000 0.0000
08:32 10 6 76 55 0.3 0.8 1033.2 0.0000 0.0000
08:42 10.1 6.1 76 45 0.3 0.8 1033.1 0.0000 0.0000
08:52 10.2 6.4 77 54 0.3 1.4 1033.1 0.0000 0.0000
09:02 10.3 6.5 77 39 0.8 1.7 1033.2 0.0000 0.0000
09:12 10.5 6.6 77 45 0.8 2.2 1033.2 0.0000 0.0000
09:22 10.7 6.8 77 33 0.8 1.7 1033.3 0.0000 0.0000
09:32 11 7.1 77 55 0.3 1.7 1033.3 0.0000 0.0000
09:42 11.3 7.4 77 45 0.8 2.2 1033.4 0.0000 0.0000
09:52 11.8 7.9 77 45 1.1 2.2 1033.4 0.0000 0.0000
10:07 12.3 8.4 77 49 1.1 3.9 1033.4 0.0000 0.0000
10:17 12.6 8.7 77 114 0.8 1.7 1033.4 0.0000 0.0000
10:27 12.9 9 77 67 1.1 2.8 1033.5 0.0000 0.0000
10:38 13.2 9.3 77 90 0.8 1.7 1033.5 0.0000 0.0000
10:47 13.5 9.6 77 90 0.8 2.2 1033.5 0.0000 0.0000
10:57 13.9 9.7 76 75 1.4 3.9 1033.3 0.0000 0.0000
11:08 14.2 10 76 48 1.1 3.9 1033.2 0.0000 0.0000
11:18 14.5 10.3 76 48 1.7 4.2 1033 0.0000 0.0000
11:27 14.8 10.4 75 131 1.4 3.1 1032.9 0.0000 0.0000
11:37 15.1 10.7 75 70 1.4 3.9 1032.8 0.0000 0.0000
11:48 15.5 11.1 75 112 1.4 3.6 1032.6 0.0000 0.0000
11:57 15.9 11.3 74 118 1.4 2.5 1032.4 0.0000 0.0000
12:07 16.1 11.5 74 122 1.4 5 1032.2 0.0000 0.0000
12:18 16.3 11.5 73 117 1.1 3.6 1032.1 0.0000 0.0000
12:28 16.5 11.6 73 127 1.1 3.6 1032.1 0.0000 0.0000
12:37 16.7 11.6 72 149 1.4 4.7 1032 0.0000 0.0000
12:53 17 11.9 72 131 1.4 3.6 1031.9 0.0000 0.0000
13:03 17.2 11.9 71 124 1.1 2.5 1031.8 0.0000 0.0000
13:12 17.4 12.1 71 40 1.4 3.9 1031.7 0.0000 0.0000
13:23 17.6 12.1 70 115 1.1 2.5 1031.5 0.0000 0.0000
13:33 17.8 12.3 70 74 1.4 3.6 1031.4 0.0000 0.0000
13:43 18 12.2 69 120 1.1 2.5 1031.2 0.0000 0.0000
13:52 18.1 12.3 69 90 1.4 4.7 1031.2 0.0000 0.0000
14:03 18.2 12.2 68 62 1.4 3.1 1031 0.0000 0.0000
14:13 18.5 12.5 68 90 1.4 4.2 1030.8 0.0000 0.0000
14:23 18.7 12.5 67 90 1.1 3.6 1030.8 0.0000 0.0000
14:33 18.9 12.6 67 83 1.4 4.2 1030.7 0.0000 0.0000
14:43 19.1 12.6 66 65 1.1 3.1 1030.5 0.0000 0.0000
14:53 19.3 12.8 66 132 1.1 2.5 1030.5 0.0000 0.0000
15:03 19.5 12.8 65 131 1.4 3.6 1030.3 0.0000 0.0000
15:13 19.6 12.8 65 120 1.4 3.1 1030.2 0.0000 0.0000
15:23 19.9 12.9 64 119 1.4 3.9 1030.1 0.0000 0.0000
15:33 20 12.7 63 45 1.1 3.6 1029.9 0.0000 0.0000
15:43 20.1 12.8 63 63 1.1 3.6 1029.8 0.0000 0.0000
15:53 20.2 12.7 62 71 1.1 3.1 1029.7 0.0000 0.0000
16:03 20.4 12.9 62 138 1.4 3.6 1029.5 0.0000 0.0000
16:13 20.2 12.4 61 41 1.4 3.9 1029.4 0.0000 0.0000
16:23 20.1 12.4 61 101 1.1 3.1 1029.3 0.0000 0.0000
16:33 20.3 12.5 61 71 1.4 2.8 1029.2 0.0000 0.0000
16:43 20.3 12.3 60 43 1.4 5.3 1029.2 0.0000 0.0000
16:54 20.3 12.3 60 50 1.4 3.9 1029 0.0000 0.0000
17:03 20.5 12.5 60 59 1.7 3.9 1028.9 0.0000 0.0000
17:13 20.4 12.1 59 52 1.4 3.6 1028.7 0.0000 0.0000
17:24 20.4 12.1 59 126 1.4 3.1 1028.5 0.0000 0.0000
17:33 20.4 12.1 59 77 1.4 3.6 1028.3 0.0000 0.0000
17:42 20.5 12 58 33 1.4 3.6 1028.2 0.0000 0.0000
17:53 20.4 11.9 58 45 1.1 3.6 1028.2 0.0000 0.0000
18:04 20.4 11.9 58 115 1.1 2.8 1028 0.0000 0.0000
18:13 20.4 11.9 58 57 1.1 3.6 1027.9 0.0000 0.0000
18:23 20.3 11.8 58 66 1.1 3.1 1027.8 0.0000 0.0000
18:34 20.2 11.4 57 59 1.4 4.7 1027.8 0.0000 0.0000
18:44 20 11.2 57 90 1.1 3.9 1027.7 0.0000 0.0000
18:53 19.8 11 57 54 1.1 2.8 1027.7 0.0000 0.0000
19:03 19.6 10.9 57 71 0.8 3.6 1027.7 0.0000 0.0000
19:14 19.3 10.6 57 51 1.1 2.5 1027.7 0.0000 0.0000
19:24 19 10.3 57 54 1.1 2.8 1027.6 0.0000 0.0000
19:33 18.8 10.1 57 47 1.1 2.5 1027.5 0.0000 0.0000
19:44 18.4 9.7 57 45 1.1 2.8 1027.6 0.0000 0.0000
19:54 18.1 9.5 57 39 0.8 2.5 1027.5 0.0000 0.0000
20:03 17.8 9.2 57 42 1.1 2.8 1027.5 0.0000 0.0000
20:14 17.5 8.9 57 45 1.1 3.1 1027.4 0.0000 0.0000
20:24 17.2 8.6 57 41 0.8 1.7 1027.4 0.0000 0.0000
20:34 16.9 8.3 57 37 0.8 2.2 1027.4 0.0000 0.0000
20:43 16.7 8.1 57 45 1.1 2.5 1027.2 0.0000 0.0000
20:54 16.5 8 57 40 1.1 2.2 1027.1 0.0000 0.0000
21:04 16.3 7.8 57 42 0.8 2.5 1026.9 0.0000 0.0000
21:14 16.1 7.6 57 38 0.8 1.7 1026.9 0.0000 0.0000
21:24 16 7.5 57 41 0.8 2.5 1026.8 0.0000 0.0000
21:32 15.8 7.3 57 37 0.8 2.2 1026.7 0.0000 0.0000
21:52 15.6 7.1 57 42 0.8 2.5 1026.5 0.0000 0.0000
22:08 15.4 6.9 57 38 0.8 2.2 1026.5 0.0000 0.0000
22:18 15.3 6.8 57 45 0.8 1.7 1026.5 0.0000 0.0000
22:28 15.2 7 58 33 0.3 1.1 1026.5 0.0000 0.0000
22:37 15.1 6.9 58 45 0.8 1.7 1026.3 0.0000 0.0000
22:48 15 6.8 58 48 0.8 1.7 1026.2 0.0000 0.0000
23:03 14.8 6.6 58 90 0.8 2.2 1026.3 0.0000 0.0000
23:13 14.8 6.6 58 135 0.8 2.5 1026.2 0.0000 0.0000
23:23 14.7 6.5 58 131 0.8 2.8 1026.1 0.0000 0.0000
23:33 14.6 6.7 59 144 0.8 2.5 1026.1 0.0000 0.0000
23:43 14.5 6.6 59 148 0.8 2.5 1026.1 0.0000 0.0000
23:53 14.4 6.5 59 147 0.3 1.4 1026 0.0000

DAY STATISTIC

2019-09-20
TEMPERATURE
AVERAGE
14.8
HIGH
20.5
17:03
LOW
9.8
07:52
PRESSURE
AVERAGE
1031.2
HIGH
1034.8
00:10
LOW
1026.0
23:53
DEWPOINT
AVERAGE
8.9
HIGH
12.9
15:23
LOW
5.8
07:52
HUMIDITY
AVERAGE
69
HIGH
77
08:52
LOW
57
18:34
WIND SPEED
AVERAGE
0.8
HIGH
1.7
11:18
WIND GUST
AVERAGE
2.2
HIGH
5.3
16:43
WIND DIRECTION
PREVAILING
NE
55.3%
N
2.8
NE
55.3
E
13.5
SE
17.7
S
0.0
SW
0.0
W
0.0
NW
2.1
PRECIPITATION
RAIN HOUR
0.0
RAIN DAY
0.0
TEMPERATURE (°C)
LOW
9.8
HIGH
20.5
AVERAGE
14.8
PRESSURE (hpa)
LOW
1026.0
HIGH
1034.8
AVERAGE
1031.2
DEVICE